Double Eagle Ii, NM

4:44 AM MDT on July 28, 2015 (GMT -0600)
Next to the Petroglyph Natl. Monument | | Change Station
CLOSE
Current Station
Personal Weather Station
Location: Albuquerque, NM
Elevation: 5245 ft
Nearby Weather Stations

Elev 5245 ft 35.11 °N, 106.74 °W | Updated 12 seconds ago

Overcast
Overcast
73.3 °F
Feels Like 77 °F
N
0.8
Wind Variable Wind from SSW
Gusts 2.3 mph

Today
High -- | Low -- °F
--% Chance of Precip.
Yesterday
High -- | Low -- °F
Precip. -- in
6:13 AM 8:13 PM
Waxing Gibbous, 88% visible
Pressure 29.80 in
Visibility 10.0 miles
Clouds Scattered Clouds 12000 ft
Scattered Clouds 17000 ft
Heat Index 77 °F
Dew Point 56 °F
Humidity 54%
Rainfall 0.00 in
Snow Depth Not available.
UV 0 out of 12
Pollen 3.70 out of 12
Air Quality Not available.
Flu Activity Not available.
METAR KABQ 280952Z 16005KT 10SM SCT120 SCT170 24/11 A3009 RMK AO2 SLP089 T02440106

More Conditions Fewer Conditions

Pressure 29.80 in
Visibility 10.0 miles
Clouds Scattered Clouds 12000 ft
Scattered Clouds 17000 ft
Heat Index 77 °F
Dew Point 56 °F
Humidity 54%
Rainfall 0.00 in
Snow Depth Not available.
UV 0 out of 12
Pollen 3.70 out of 12
Air Quality Not available.
Flu Activity Not available.
METAR KABQ 280952Z 16005KT 10SM SCT120 SCT170 24/11 A3009 RMK AO2 SLP089 T02440106

More Conditions Fewer Conditions

10-Day Weather Forecast

×

Almanac

Astronomy

Jul. 28, 2015 Rise Set
Actual Time
Civil Twilight
Nautical Twilight
Astronomical Twilight
Moon
Length of Visible Light
Length of Day
Tomorrow will be .
, % of the Moon is Illuminated

Today's Extremes

State Highs State Lows

Community

WunderPhotos

Upload Photos

1,841,802 photos uploaded!

WunderBlogs® & News

Nearby

Air Quality

  Air Quality AQ Index Pollutant
Not available.

Snow Depth

Station Depth Elevation

Earthquake Activity

City Distance Mag. Time & Date
Minimum magnitude displayed is 2.5.

Coastal Water Temperatures

Place Temperature

Stations

Nearby Weather Stations

Station Location Temp. Windchill Dew Point Humidity Wind Precip. Elev Updated Type